sensor_id;sensor_type;location;lat;lon;timestamp;pressure;altitude;pressure_sealevel;temperature;humidity
74958;BME280;63741;42.624;26.276;2023-01-01T00:02:24;101234.44;;;3.97;71.39
74958;BME280;63741;42.624;26.276;2023-01-01T00:04:55;101243.19;;;3.97;69.90
74958;BME280;63741;42.624;26.276;2023-01-01T00:07:22;101245.72;;;3.63;70.58
74958;BME280;63741;42.624;26.276;2023-01-01T00:09:49;101243.53;;;3.45;69.13
74958;BME280;63741;42.624;26.276;2023-01-01T00:12:35;101251.09;;;2.75;71.85
74958;BME280;63741;42.624;26.276;2023-01-01T00:15:01;101253.84;;;2.69;71.43
74958;BME280;63741;42.624;26.276;2023-01-01T00:17:29;101248.34;;;2.35;71.63
74958;BME280;63741;42.624;26.276;2023-01-01T00:19:56;101252.53;;;2.45;70.96
74958;BME280;63741;42.624;26.276;2023-01-01T00:22:22;101252.34;;;2.54;70.76
74958;BME280;63741;42.624;26.276;2023-01-01T00:25:11;101244.84;;;2.36;70.47
74958;BME280;63741;42.624;26.276;2023-01-01T00:27:41;101257.00;;;2.38;70.37
74958;BME280;63741;42.624;26.276;2023-01-01T00:30:09;101253.38;;;2.45;70.07
74958;BME280;63741;42.624;26.276;2023-01-01T00:32:36;101252.75;;;2.33;70.96
74958;BME280;63741;42.624;26.276;2023-01-01T00:35:03;101258.91;;;2.28;71.01
74958;BME280;63741;42.624;26.276;2023-01-01T00:37:30;101258.69;;;2.42;70.50
74958;BME280;63741;42.624;26.276;2023-01-01T00:39:57;101261.19;;;2.47;69.74
74958;BME280;63741;42.624;26.276;2023-01-01T00:42:24;101259.50;;;2.46;70.07
74958;BME280;63741;42.624;26.276;2023-01-01T00:44:51;101261.28;;;2.42;70.05
74958;BME280;63741;42.624;26.276;2023-01-01T00:47:18;101266.03;;;2.20;71.06
74958;BME280;63741;42.624;26.276;2023-01-01T00:49:45;101269.91;;;1.95;71.76
74958;BME280;63741;42.624;26.276;2023-01-01T00:52:11;101264.38;;;1.59;72.91
74958;BME280;63741;42.624;26.276;2023-01-01T00:54:38;101255.72;;;1.57;73.18
74958;BME280;63741;42.624;26.276;2023-01-01T00:57:05;101245.44;;;1.45;73.17
74958;BME280;63741;42.624;26.276;2023-01-01T00:59:32;101257.69;;;1.40;72.59
74958;BME280;63741;42.624;26.276;2023-01-01T01:01:59;101256.59;;;1.55;72.97
74958;BME280;63741;42.624;26.276;2023-01-01T01:04:26;101262.16;;;1.32;73.28
74958;BME280;63741;42.624;26.276;2023-01-01T01:06:53;101256.78;;;1.44;72.35
74958;BME280;63741;42.624;26.276;2023-01-01T01:09:20;101253.38;;;1.39;72.39
74958;BME280;63741;42.624;26.276;2023-01-01T01:11:47;101252.06;;;1.67;72.01
74958;BME280;63741;42.624;26.276;2023-01-01T01:14:14;101248.69;;;1.62;70.69
74958;BME280;63741;42.624;26.276;2023-01-01T01:16:41;101250.97;;;1.82;71.22
74958;BME280;63741;42.624;26.276;2023-01-01T01:19:09;101253.47;;;1.90;70.83
74958;BME280;63741;42.624;26.276;2023-01-01T01:21:41;101258.66;;;1.93;70.45
74958;BME280;63741;42.624;26.276;2023-01-01T01:24:08;101256.88;;;1.95;70.15
74958;BME280;63741;42.624;26.276;2023-01-01T01:26:35;101261.03;;;2.05;70.69
74958;BME280;63741;42.624;26.276;2023-01-01T01:29:02;101240.19;;;2.03;69.90
74958;BME280;63741;42.624;26.276;2023-01-01T01:31:31;101252.13;;;2.18;69.68
74958;BME280;63741;42.624;26.276;2023-01-01T01:33:58;101247.16;;;2.03;69.80
74958;BME280;63741;42.624;26.276;2023-01-01T01:36:26;101250.53;;;2.10;69.75
74958;BME280;63741;42.624;26.276;2023-01-01T01:38:54;101239.28;;;2.06;69.58
74958;BME280;63741;42.624;26.276;2023-01-01T01:41:23;101234.13;;;2.03;69.12
74958;BME280;63741;42.624;26.276;2023-01-01T01:48:54;101247.88;;;1.57;70.05
74958;BME280;63741;42.624;26.276;2023-01-01T01:51:35;101249.88;;;1.40;71.92
74958;BME280;63741;42.624;26.276;2023-01-01T01:54:07;101251.56;;;1.42;71.30
74958;BME280;63741;42.624;26.276;2023-01-01T01:56:41;101248.44;;;1.16;71.77
74958;BME280;63741;42.624;26.276;2023-01-01T01:59:10;101256.03;;;1.33;71.38
74958;BME280;63741;42.624;26.276;2023-01-01T02:01:37;101249.41;;;1.07;72.47
74958;BME280;63741;42.624;26.276;2023-01-01T02:04:05;101241.78;;;0.93;72.56
74958;BME280;63741;42.624;26.276;2023-01-01T02:06:32;101252.00;;;1.12;71.55
74958;BME280;63741;42.624;26.276;2023-01-01T02:09:03;101241.75;;;0.96;72.54
74958;BME280;63741;42.624;26.276;2023-01-01T02:11:30;101246.56;;;1.27;70.73
74958;BME280;63741;42.624;26.276;2023-01-01T02:13:58;101248.50;;;1.13;72.51
74958;BME280;63741;42.624;26.276;2023-01-01T02:27:54;101247.88;;;0.92;71.56
74958;BME280;63741;42.624;26.276;2023-01-01T02:30:23;101246.25;;;0.84;72.50
74958;BME280;63741;42.624;26.276;2023-01-01T02:32:59;101246.44;;;0.65;72.73
74958;BME280;63741;42.624;26.276;2023-01-01T02:35:31;101244.63;;;0.73;71.49
74958;BME280;63741;42.624;26.276;2023-01-01T02:38:07;101237.81;;;0.63;72.70
74958;BME280;63741;42.624;26.276;2023-01-01T02:40:40;101245.88;;;0.40;73.41
74958;BME280;63741;42.624;26.276;2023-01-01T02:43:08;101244.03;;;0.50;74.41
74958;BME280;63741;42.624;26.276;2023-01-01T02:45:35;101238.00;;;0.43;73.43
74958;BME280;63741;42.624;26.276;2023-01-01T02:50:55;101227.19;;;0.79;72.20
74958;BME280;63741;42.624;26.276;2023-01-01T02:53:31;101222.06;;;0.72;72.20
74958;BME280;63741;42.624;26.276;2023-01-01T02:56:27;101222.91;;;0.76;72.32
74958;BME280;63741;42.624;26.276;2023-01-01T02:59:22;101236.00;;;0.67;72.80
74958;BME280;63741;42.624;26.276;2023-01-01T03:10:38;101230.19;;;0.43;72.54
74958;BME280;63741;42.624;26.276;2023-01-01T03:16:06;101234.25;;;0.70;72.14
74958;BME280;63741;42.624;26.276;2023-01-01T03:18:42;101233.41;;;0.67;71.21
74958;BME280;63741;42.624;26.276;2023-01-01T03:21:12;101240.19;;;0.80;70.73
74958;BME280;63741;42.624;26.276;2023-01-01T03:23:45;101240.19;;;0.82;71.44
74958;BME280;63741;42.624;26.276;2023-01-01T03:26:17;101232.31;;;0.85;70.61
74958;BME280;63741;42.624;26.276;2023-01-01T03:28:49;101238.38;;;0.88;71.01
74958;BME280;63741;42.624;26.276;2023-01-01T03:31:21;101229.75;;;0.83;70.83
74958;BME280;63741;42.624;26.276;2023-01-01T03:34:01;101230.72;;;0.74;70.99
74958;BME280;63741;42.624;26.276;2023-01-01T03:36:34;101226.25;;;0.84;70.92
74958;BME280;63741;42.624;26.276;2023-01-01T03:47:12;101228.06;;;0.81;70.80
74958;BME280;63741;42.624;26.276;2023-01-01T03:49:39;101220.28;;;0.78;70.82
74958;BME280;63741;42.624;26.276;2023-01-01T03:55:07;101232.31;;;0.85;71.78
74958;BME280;63741;42.624;26.276;2023-01-01T03:57:43;101240.97;;;0.90;71.61
74958;BME280;63741;42.624;26.276;2023-01-01T04:00:22;101243.44;;;1.00;70.43
74958;BME280;63741;42.624;26.276;2023-01-01T04:03:11;101250.38;;;1.03;69.91
74958;BME280;63741;42.624;26.276;2023-01-01T04:05:42;101242.84;;;0.77;70.46
74958;BME280;63741;42.624;26.276;2023-01-01T04:08:11;101251.56;;;0.74;70.51
74958;BME280;63741;42.624;26.276;2023-01-01T04:10:42;101261.00;;;0.83;69.09
74958;BME280;63741;42.624;26.276;2023-01-01T04:13:11;101255.97;;;0.66;69.74
74958;BME280;63741;42.624;26.276;2023-01-01T04:15:37;101260.44;;;0.55;68.56
74958;BME280;63741;42.624;26.276;2023-01-01T04:18:04;101258.03;;;0.37;70.44
74958;BME280;63741;42.624;26.276;2023-01-01T04:20:31;101265.91;;;0.29;71.28
74958;BME280;63741;42.624;26.276;2023-01-01T04:22:59;101270.34;;;0.19;71.13
74958;BME280;63741;42.624;26.276;2023-01-01T04:25:27;101269.63;;;-0.01;72.51
74958;BME280;63741;42.624;26.276;2023-01-01T04:27:55;101275.72;;;-0.02;72.91
74958;BME280;63741;42.624;26.276;2023-01-01T04:30:24;101275.69;;;0.03;72.76
74958;BME280;63741;42.624;26.276;2023-01-01T04:32:53;101268.75;;;-0.02;72.44
74958;BME280;63741;42.624;26.276;2023-01-01T04:35:20;101276.56;;;0.02;72.57
74958;BME280;63741;42.624;26.276;2023-01-01T04:37:47;101262.66;;;0.03;73.60
74958;BME280;63741;42.624;26.276;2023-01-01T04:40:14;101279.03;;;0.15;71.29
74958;BME280;63741;42.624;26.276;2023-01-01T04:42:41;101266.84;;;0.23;71.14
74958;BME280;63741;42.624;26.276;2023-01-01T04:45:09;101268.63;;;0.18;70.25
74958;BME280;63741;42.624;26.276;2023-01-01T04:47:41;101269.59;;;0.04;73.69
74958;BME280;63741;42.624;26.276;2023-01-01T04:50:09;101270.56;;;-0.10;73.66
74958;BME280;63741;42.624;26.276;2023-01-01T04:52:36;101269.66;;;-0.06;72.72
74958;BME280;63741;42.624;26.276;2023-01-01T04:55:03;101276.53;;;0.03;71.22
74958;BME280;63741;42.624;26.276;2023-01-01T04:57:30;101272.16;;;0.08;72.36
74958;BME280;63741;42.624;26.276;2023-01-01T04:59:57;101276.59;;;0.00;72.27
74958;BME280;63741;42.624;26.276;2023-01-01T05:02:25;101272.25;;;-0.03;72.74
74958;BME280;63741;42.624;26.276;2023-01-01T05:04:52;101272.25;;;-0.06;73.35
74958;BME280;63741;42.624;26.276;2023-01-01T05:07:19;101283.50;;;-0.02;72.47
74958;BME280;63741;42.624;26.276;2023-01-01T05:09:46;101282.66;;;-0.03;71.72
74958;BME280;63741;42.624;26.276;2023-01-01T05:12:13;101287.06;;;-0.12;72.39
74958;BME280;63741;42.624;26.276;2023-01-01T05:14:40;101284.44;;;-0.11;72.46
74958;BME280;63741;42.624;26.276;2023-01-01T05:17:07;101290.56;;;-0.19;71.13
74958;BME280;63741;42.624;26.276;2023-01-01T05:19:34;101288.56;;;0.16;70.83
74958;BME280;63741;42.624;26.276;2023-01-01T05:22:00;101293.00;;;0.07;70.41
74958;BME280;63741;42.624;26.276;2023-01-01T05:24:36;101289.44;;;0.18;71.61
74958;BME280;63741;42.624;26.276;2023-01-01T05:27:03;101289.50;;;0.08;71.80
74958;BME280;63741;42.624;26.276;2023-01-01T05:29:30;101287.63;;;0.28;69.41
74958;BME280;63741;42.624;26.276;2023-01-01T05:31:56;101293.69;;;0.25;68.97
74958;BME280;63741;42.624;26.276;2023-01-01T05:34:25;101297.97;;;0.33;70.40
74958;BME280;63741;42.624;26.276;2023-01-01T05:36:52;101294.47;;;0.35;68.78
74958;BME280;63741;42.624;26.276;2023-01-01T05:39:19;101298.06;;;0.20;70.63
74958;BME280;63741;42.624;26.276;2023-01-01T05:41:46;101292.00;;;0.20;70.65
74958;BME280;63741;42.624;26.276;2023-01-01T05:44:13;101297.97;;;0.34;69.25
74958;BME280;63741;42.624;26.276;2023-01-01T05:46:42;101300.66;;;0.22;69.34
74958;BME280;63741;42.624;26.276;2023-01-01T05:49:10;101294.56;;;0.24;70.16
74958;BME280;63741;42.624;26.276;2023-01-01T05:51:37;101299.84;;;0.18;69.93
74958;BME280;63741;42.624;26.276;2023-01-01T05:54:03;101300.59;;;0.33;70.99
74958;BME280;63741;42.624;26.276;2023-01-01T05:56:30;101294.53;;;0.32;70.78
74958;BME280;63741;42.624;26.276;2023-01-01T05:58:57;101297.97;;;0.34;71.72
74958;BME280;63741;42.624;26.276;2023-01-01T06:01:26;101291.00;;;0.35;70.37
74958;BME280;63741;42.624;26.276;2023-01-01T06:03:55;101293.28;;;0.67;70.02
74958;BME280;63741;42.624;26.276;2023-01-01T06:06:31;101291.13;;;1.06;68.74
74958;BME280;63741;42.624;26.276;2023-01-01T06:09:01;101298.59;;;1.36;67.82
74958;BME280;63741;42.624;26.276;2023-01-01T06:11:29;101304.00;;;1.84;63.45
74958;BME280;63741;42.624;26.276;2023-01-01T06:13:58;101303.72;;;2.55;62.60
74958;BME280;63741;42.624;26.276;2023-01-01T06:16:26;101298.06;;;3.21;59.88
74958;BME280;63741;42.624;26.276;2023-01-01T06:18:54;101298.78;;;3.70;58.34
74958;BME280;63741;42.624;26.276;2023-01-01T06:21:23;101304.50;;;4.24;56.17
74958;BME280;63741;42.624;26.276;2023-01-01T06:23:50;101298.75;;;5.10;53.54
74958;BME280;63741;42.624;26.276;2023-01-01T06:26:22;101303.34;;;5.31;53.50
74958;BME280;63741;42.624;26.276;2023-01-01T06:28:49;101311.09;;;5.95;51.53
74958;BME280;63741;42.624;26.276;2023-01-01T06:31:19;101310.13;;;6.24;49.79
74958;BME280;63741;42.624;26.276;2023-01-01T06:33:47;101308.28;;;6.79;48.97
74958;BME280;63741;42.624;26.276;2023-01-01T06:36:16;101311.22;;;6.45;50.39
74958;BME280;63741;42.624;26.276;2023-01-01T06:38:46;101307.66;;;5.91;51.47
74958;BME280;63741;42.624;26.276;2023-01-01T06:41:21;101316.63;;;5.56;51.64
74958;BME280;63741;42.624;26.276;2023-01-01T06:43:49;101310.34;;;5.01;54.02
74958;BME280;63741;42.624;26.276;2023-01-01T06:48:48;101312.25;;;4.62;55.37
74958;BME280;63741;42.624;26.276;2023-01-01T06:51:18;101315.13;;;4.85;55.84
74958;BME280;63741;42.624;26.276;2023-01-01T06:53:47;101313.03;;;4.98;55.09
74958;BME280;63741;42.624;26.276;2023-01-01T06:56:14;101317.16;;;5.38;54.55
74958;BME280;63741;42.624;26.276;2023-01-01T06:58:41;101323.41;;;5.93;54.33
74958;BME280;63741;42.624;26.276;2023-01-01T07:01:14;101317.75;;;5.47;55.82
74958;BME280;63741;42.624;26.276;2023-01-01T07:03:42;101325.19;;;6.19;54.91
74958;BME280;63741;42.624;26.276;2023-01-01T07:06:09;101327.06;;;6.42;52.56
74958;BME280;63741;42.624;26.276;2023-01-01T07:08:37;101330.75;;;6.63;52.98
74958;BME280;63741;42.624;26.276;2023-01-01T07:11:04;101321.69;;;6.96;52.37
74958;BME280;63741;42.624;26.276;2023-01-01T07:13:31;101326.00;;;7.22;52.51
74958;BME280;63741;42.624;26.276;2023-01-01T07:15:58;101321.50;;;7.26;51.57
74958;BME280;63741;42.624;26.276;2023-01-01T07:18:25;101326.78;;;7.71;52.32
74958;BME280;63741;42.624;26.276;2023-01-01T07:20:54;101321.84;;;7.85;52.01
74958;BME280;63741;42.624;26.276;2023-01-01T07:23:22;101326.13;;;7.66;52.58
74958;BME280;63741;42.624;26.276;2023-01-01T07:25:51;101332.06;;;7.95;51.27
74958;BME280;63741;42.624;26.276;2023-01-01T07:28:19;101331.16;;;7.72;51.73
74958;BME280;63741;42.624;26.276;2023-01-01T07:30:46;101333.50;;;8.02;51.63
74958;BME280;63741;42.624;26.276;2023-01-01T07:33:19;101329.91;;;8.48;51.82
74958;BME280;63741;42.624;26.276;2023-01-01T07:35:47;101339.19;;;8.57;51.72
74958;BME280;63741;42.624;26.276;2023-01-01T07:38:14;101340.38;;;8.70;51.40
74958;BME280;63741;42.624;26.276;2023-01-01T07:40:41;101336.81;;;8.51;52.25
74958;BME280;63741;42.624;26.276;2023-01-01T07:43:09;101335.69;;;8.56;52.53
74958;BME280;63741;42.624;26.276;2023-01-01T07:45:38;101342.00;;;8.52;53.89
74958;BME280;63741;42.624;26.276;2023-01-01T07:48:06;101341.16;;;8.52;52.98
74958;BME280;63741;42.624;26.276;2023-01-01T07:50:34;101347.06;;;8.99;52.78
74958;BME280;63741;42.624;26.276;2023-01-01T07:53:03;101344.88;;;8.68;53.83
74958;BME280;63741;42.624;26.276;2023-01-01T07:55:31;101345.38;;;8.56;54.89
74958;BME280;63741;42.624;26.276;2023-01-01T07:57:59;101343.56;;;8.78;54.26
74958;BME280;63741;42.624;26.276;2023-01-01T08:00:27;101348.78;;;8.80;53.98
74958;BME280;63741;42.624;26.276;2023-01-01T08:02:54;101346.50;;;8.50;54.89
74958;BME280;63741;42.624;26.276;2023-01-01T08:05:21;101345.56;;;8.29;56.93
74958;BME280;63741;42.624;26.276;2023-01-01T08:07:53;101360.16;;;8.60;56.55
74958;BME280;63741;42.624;26.276;2023-01-01T08:10:20;101356.38;;;8.67;55.83
74958;BME280;63741;42.624;26.276;2023-01-01T08:12:47;101358.41;;;9.22;54.33
74958;BME280;63741;42.624;26.276;2023-01-01T08:15:15;101360.19;;;9.01;54.95
74958;BME280;63741;42.624;26.276;2023-01-01T08:17:42;101359.31;;;9.21;55.41
74958;BME280;63741;42.624;26.276;2023-01-01T08:20:13;101364.41;;;9.65;53.89
74958;BME280;63741;42.624;26.276;2023-01-01T08:22:40;101364.53;;;9.80;53.50
74958;BME280;63741;42.624;26.276;2023-01-01T08:25:07;101373.53;;;9.76;53.69
74958;BME280;63741;42.624;26.276;2023-01-01T08:27:34;101373.72;;;9.91;53.59
74958;BME280;63741;42.624;26.276;2023-01-01T08:30:01;101373.31;;;9.81;54.86
74958;BME280;63741;42.624;26.276;2023-01-01T08:32:28;101372.44;;;9.99;54.97
74958;BME280;63741;42.624;26.276;2023-01-01T08:34:55;101371.94;;;9.53;56.24
74958;BME280;63741;42.624;26.276;2023-01-01T08:37:22;101368.38;;;9.54;56.27
74958;BME280;63741;42.624;26.276;2023-01-01T08:39:52;101373.84;;;9.50;56.83
74958;BME280;63741;42.624;26.276;2023-01-01T08:42:19;101374.31;;;9.97;55.27
74958;BME280;63741;42.624;26.276;2023-01-01T08:44:46;101372.28;;;10.21;54.32
74958;BME280;63741;42.624;26.276;2023-01-01T08:47:18;101373.13;;;10.22;54.82
74958;BME280;63741;42.624;26.276;2023-01-01T08:49:45;101370.13;;;10.66;54.22
74958;BME280;63741;42.624;26.276;2023-01-01T08:52:12;101361.19;;;11.03;53.73
74958;BME280;63741;42.624;26.276;2023-01-01T08:54:39;101359.38;;;11.21;53.85
74958;BME280;63741;42.624;26.276;2023-01-01T08:57:07;101355.91;;;11.36;52.98
74958;BME280;63741;42.624;26.276;2023-01-01T08:59:34;101345.53;;;11.31;53.88
74958;BME280;63741;42.624;26.276;2023-01-01T09:02:01;101344.94;;;11.26;53.58
74958;BME280;63741;42.624;26.276;2023-01-01T09:04:28;101340.13;;;11.66;52.77
74958;BME280;63741;42.624;26.276;2023-01-01T09:06:55;101327.88;;;11.97;53.01
74958;BME280;63741;42.624;26.276;2023-01-01T09:09:22;101336.66;;;12.29;51.70
74958;BME280;63741;42.624;26.276;2023-01-01T09:11:57;101334.53;;;12.04;52.42
74958;BME280;63741;42.624;26.276;2023-01-01T09:14:30;101332.78;;;12.19;52.15
74958;BME280;63741;42.624;26.276;2023-01-01T09:16:57;101324.97;;;12.31;51.84
74958;BME280;63741;42.624;26.276;2023-01-01T09:19:25;101313.50;;;12.91;51.13
74958;BME280;63741;42.624;26.276;2023-01-01T09:21:52;101332.00;;;13.07;50.07
74958;BME280;63741;42.624;26.276;2023-01-01T09:24:19;101317.03;;;13.20;50.01
74958;BME280;63741;42.624;26.276;2023-01-01T09:26:46;101320.19;;;13.27;49.68
74958;BME280;63741;42.624;26.276;2023-01-01T09:29:14;101314.31;;;13.36;50.11
74958;BME280;63741;42.624;26.276;2023-01-01T09:31:49;101320.56;;;13.63;49.11
74958;BME280;63741;42.624;26.276;2023-01-01T09:34:16;101316.84;;;14.07;48.78
74958;BME280;63741;42.624;26.276;2023-01-01T09:36:44;101312.34;;;13.81;48.63
74958;BME280;63741;42.624;26.276;2023-01-01T09:39:13;101309.00;;;13.91;49.31
74958;BME280;63741;42.624;26.276;2023-01-01T09:41:53;101304.44;;;14.21;49.30
74958;BME280;63741;42.624;26.276;2023-01-01T09:47:52;101299.25;;;14.72;47.38
74958;BME280;63741;42.624;26.276;2023-01-01T09:53:14;101292.22;;;14.71;46.74
74958;BME280;63741;42.624;26.276;2023-01-01T09:56:01;101299.91;;;14.88;47.47
74958;BME280;63741;42.624;26.276;2023-01-01T09:58:35;101298.19;;;15.00;47.90
74958;BME280;63741;42.624;26.276;2023-01-01T10:01:55;101288.28;;;15.02;47.29
74958;BME280;63741;42.624;26.276;2023-01-01T10:10:03;101288.81;;;15.32;47.16
74958;BME280;63741;42.624;26.276;2023-01-01T10:17:48;101273.28;;;15.01;47.48
74958;BME280;63741;42.624;26.276;2023-01-01T10:20:23;101276.59;;;14.91;47.35
74958;BME280;63741;42.624;26.276;2023-01-01T10:23:22;101278.03;;;15.08;47.07
74958;BME280;63741;42.624;26.276;2023-01-01T10:25:52;101276.25;;;14.96;47.93
74958;BME280;63741;42.624;26.276;2023-01-01T10:31:44;101271.88;;;15.08;48.09
74958;BME280;63741;42.624;26.276;2023-01-01T10:34:16;101268.31;;;15.46;47.16
74958;BME280;63741;42.624;26.276;2023-01-01T10:36:45;101270.16;;;15.07;48.65
74958;BME280;63741;42.624;26.276;2023-01-01T10:39:16;101268.34;;;15.07;48.18
74958;BME280;63741;42.624;26.276;2023-01-01T10:41:44;101268.78;;;15.14;48.47
74958;BME280;63741;42.624;26.276;2023-01-01T10:44:12;101265.78;;;15.31;47.78
74958;BME280;63741;42.624;26.276;2023-01-01T10:46:44;101264.19;;;15.16;47.92
74958;BME280;63741;42.624;26.276;2023-01-01T10:49:13;101258.34;;;15.11;48.33
74958;BME280;63741;42.624;26.276;2023-01-01T10:51:47;101251.91;;;15.26;48.03
74958;BME280;63741;42.624;26.276;2023-01-01T10:56:56;101249.84;;;15.42;47.68
74958;BME280;63741;42.624;26.276;2023-01-01T11:02:21;101245.72;;;15.75;47.36
74958;BME280;63741;42.624;26.276;2023-01-01T11:04:50;101238.19;;;15.56;47.93
74958;BME280;63741;42.624;26.276;2023-01-01T11:07:30;101239.63;;;15.97;47.64
74958;BME280;63741;42.624;26.276;2023-01-01T11:10:00;101238.06;;;15.95;46.28
74958;BME280;63741;42.624;26.276;2023-01-01T11:12:34;101226.25;;;15.86;47.51
74958;BME280;63741;42.624;26.276;2023-01-01T11:15:38;101227.06;;;15.62;47.66
74958;BME280;63741;42.624;26.276;2023-01-01T11:18:13;101227.63;;;15.55;47.49
74958;BME280;63741;42.624;26.276;2023-01-01T11:20:42;101218.19;;;15.38;47.91
74958;BME280;63741;42.624;26.276;2023-01-01T11:23:31;101224.72;;;15.95;47.75
74958;BME280;63741;42.624;26.276;2023-01-01T11:28:39;101226.09;;;16.47;46.31
74958;BME280;63741;42.624;26.276;2023-01-01T11:31:17;101228.34;;;16.17;46.84
74958;BME280;63741;42.624;26.276;2023-01-01T11:33:53;101235.06;;;16.34;46.38
74958;BME280;63741;42.624;26.276;2023-01-01T11:36:26;101230.72;;;16.09;46.81
74958;BME280;63741;42.624;26.276;2023-01-01T11:41:50;101223.06;;;16.40;46.05
74958;BME280;63741;42.624;26.276;2023-01-01T11:44:41;101222.16;;;15.69;47.59
74958;BME280;63741;42.624;26.276;2023-01-01T11:52:46;101211.97;;;16.22;45.87
74958;BME280;63741;42.624;26.276;2023-01-01T11:57:57;101209.97;;;15.78;45.98
74958;BME280;63741;42.624;26.276;2023-01-01T12:00:28;101208.44;;;15.86;47.10
74958;BME280;63741;42.624;26.276;2023-01-01T12:02:59;101214.75;;;15.85;46.49
74958;BME280;63741;42.624;26.276;2023-01-01T12:05:51;101211.75;;;16.01;45.57
74958;BME280;63741;42.624;26.276;2023-01-01T12:08:26;101208.09;;;16.26;45.59
74958;BME280;63741;42.624;26.276;2023-01-01T12:11:02;101212.78;;;15.87;46.65
74958;BME280;63741;42.624;26.276;2023-01-01T12:13:38;101213.63;;;16.12;46.24
74958;BME280;63741;42.624;26.276;2023-01-01T12:16:14;101210.16;;;15.51;46.39
74958;BME280;63741;42.624;26.276;2023-01-01T12:18:47;101208.13;;;15.54;46.98
74958;BME280;63741;42.624;26.276;2023-01-01T12:21:23;101202.66;;;15.56;46.53
74958;BME280;63741;42.624;26.276;2023-01-01T12:23:51;101201.03;;;15.66;45.64
74958;BME280;63741;42.624;26.276;2023-01-01T12:34:48;101194.69;;;15.19;47.65
74958;BME280;63741;42.624;26.276;2023-01-01T12:59:25;101201.81;;;15.55;45.48
74958;BME280;63741;42.624;26.276;2023-01-01T13:01:55;101194.53;;;16.40;44.52
74958;BME280;63741;42.624;26.276;2023-01-01T13:04:24;101201.97;;;17.38;41.48
74958;BME280;63741;42.624;26.276;2023-01-01T13:06:54;101206.78;;;21.62;33.70
74958;BME280;63741;42.624;26.276;2023-01-01T13:09:40;101204.56;;;28.33;22.84
74958;BME280;63741;42.624;26.276;2023-01-01T13:12:21;101214.22;;;30.01;20.83
74958;BME280;63741;42.624;26.276;2023-01-01T13:14:50;101211.09;;;30.10;20.30
74958;BME280;63741;42.624;26.276;2023-01-01T13:17:18;101215.53;;;30.38;19.98
74958;BME280;63741;42.624;26.276;2023-01-01T13:33:33;101198.94;;;16.53;41.89
74958;BME280;63741;42.624;26.276;2023-01-01T13:38:43;101184.69;;;15.95;43.36
74958;BME280;63741;42.624;26.276;2023-01-01T13:46:41;101196.38;;;15.20;45.22
74958;BME280;63741;42.624;26.276;2023-01-01T13:59:50;101193.84;;;15.06;46.24
74958;BME280;63741;42.624;26.276;2023-01-01T14:02:25;101184.84;;;14.70;47.36
74958;BME280;63741;42.624;26.276;2023-01-01T14:05:17;101191.09;;;14.44;48.45
74958;BME280;63741;42.624;26.276;2023-01-01T14:07:51;101188.78;;;13.99;49.36
74958;BME280;63741;42.624;26.276;2023-01-01T14:10:39;101193.56;;;13.67;49.98
74958;BME280;63741;42.624;26.276;2023-01-01T14:15:39;101193.03;;;13.62;50.17
74958;BME280;63741;42.624;26.276;2023-01-01T14:18:12;101194.56;;;13.52;50.99
74958;BME280;63741;42.624;26.276;2023-01-01T14:20:45;101198.25;;;13.22;51.15
74958;BME280;63741;42.624;26.276;2023-01-01T14:23:34;101187.59;;;13.08;52.22
74958;BME280;63741;42.624;26.276;2023-01-01T14:26:08;101184.56;;;12.85;52.82
74958;BME280;63741;42.624;26.276;2023-01-01T14:28:37;101194.28;;;12.86;53.26
74958;BME280;63741;42.624;26.276;2023-01-01T14:31:09;101195.03;;;12.88;53.08
74958;BME280;63741;42.624;26.276;2023-01-01T14:33:38;101193.78;;;12.80;53.21
74958;BME280;63741;42.624;26.276;2023-01-01T14:38:43;101196.72;;;12.61;55.01
74958;BME280;63741;42.624;26.276;2023-01-01T14:41:24;101202.44;;;12.25;55.78
74958;BME280;63741;42.624;26.276;2023-01-01T14:43:56;101198.94;;;12.24;55.93
74958;BME280;63741;42.624;26.276;2023-01-01T14:46:25;101196.06;;;12.13;56.75
74958;BME280;63741;42.624;26.276;2023-01-01T14:48:55;101199.22;;;11.89;57.99
74958;BME280;63741;42.624;26.276;2023-01-01T14:51:28;101203.22;;;11.81;58.25
74958;BME280;63741;42.624;26.276;2023-01-01T14:54:01;101197.69;;;11.85;57.78
74958;BME280;63741;42.624;26.276;2023-01-01T14:56:33;101196.22;;;11.80;57.69
74958;BME280;63741;42.624;26.276;2023-01-01T14:59:25;101199.94;;;11.61;58.84
74958;BME280;63741;42.624;26.276;2023-01-01T15:04:39;101198.44;;;11.56;58.47
74958;BME280;63741;42.624;26.276;2023-01-01T15:07:27;101200.03;;;11.44;59.42
74958;BME280;63741;42.624;26.276;2023-01-01T15:09:56;101200.59;;;11.33;59.69
74958;BME280;63741;42.624;26.276;2023-01-01T15:12:26;101199.00;;;11.31;59.49
74958;BME280;63741;42.624;26.276;2023-01-01T15:14:54;101198.91;;;11.32;59.45
74958;BME280;63741;42.624;26.276;2023-01-01T15:17:25;101201.81;;;11.28;58.95
74958;BME280;63741;42.624;26.276;2023-01-01T15:20:18;101200.06;;;11.11;59.57
74958;BME280;63741;42.624;26.276;2023-01-01T15:22:46;101204.06;;;10.86;60.39
74958;BME280;63741;42.624;26.276;2023-01-01T15:25:15;101207.06;;;10.96;59.85
74958;BME280;63741;42.624;26.276;2023-01-01T15:27:48;101204.00;;;11.04;60.02
74958;BME280;63741;42.624;26.276;2023-01-01T15:30:26;101205.69;;;10.89;60.25
74958;BME280;63741;42.624;26.276;2023-01-01T15:32:54;101204.22;;;10.83;60.49
74958;BME280;63741;42.624;26.276;2023-01-01T15:38:00;101209.00;;;10.77;60.56
74958;BME280;63741;42.624;26.276;2023-01-01T15:40:32;101214.69;;;10.69;60.00
74958;BME280;63741;42.624;26.276;2023-01-01T15:45:39;101215.19;;;10.60;60.54